Aérodrome :
LOGIN :

S'inscrire | Disclaimer

   EN    FR    IT 

 










Légende :    VFR   VFR Marginal   IFR   IFR Intensif   IFR Très Intensif
Visi : 
Plafond : 
>= 8 km
>= 3000ft
5 à 8 km
1000 à 3000 ft
1500m à 5 km
500 à 1000 ft
800 à 1500m
200 à 500 ft
< 800m
< 200 ft
Symboles :   Orages  Brouillard  Fortes neiges  Fortes précipitations  Vent > 20 kt
SIGMETs :   Divers  Orages  Givrage  Turbulence  Onde Orograph.  Cendres Volcan.






- Altitude de l'aérodrome : 353 ft
- Code IATA : LIN


LIML - Milano Linate

DERNIER METAR :
  • 281220Z 04008KT 360V090 CAVOK 15/M12 Q1017 NOSIG

METARs EXPIRÉS :
  • 281150Z 01009KT 320V050 CAVOK 15/M11 Q1017 NOSIG
  • 281120Z 01011KT 340V040 CAVOK 14/M11 Q1017 NOSIG
  • 281050Z 02009KT CAVOK 13/M12 Q1017 NOSIG
  • 281020Z 34011KT CAVOK 13/M13 Q1017 NOSIG
  • 280950Z 32011KT 280V360 CAVOK 12/M11 Q1017 NOSIG

TAF TAF LIML
Valide du 28 à 12h jusqu'au 29 à 12h UTC


281100Z 2812/2912 35012KT CAVOK
BECMG 2813/2815 VRB05KT



MET'MAP, la Météo Aéronautique d'un coup d'oeil ! - Copyright ORBIFLY Décembre 2007 - Disclaimer

ORBIFLY MET'MAP TEAM :

Programmation & Développement : Alexandra Zaïnal
Sur une idée originale de : Baudouin d'Aumeries
Assistance à la programmation : Marc-Olivier Méhu
Soutien technique & logistique : Manuel Goepfert

Contact : metmap@orbifly.com




SOURCES & CREDITS :

   NOAA